sensor_id;sensor_type;location;lat;lon;timestamp;P1;durP1;ratioP1;P2;durP2;ratioP2
58768;SDS011;44536;47.474;19.056;2023-01-29T00:00:50;23.45;;;11.27;;
58768;SDS011;44536;47.474;19.056;2023-01-29T00:03:52;26.17;;;12.52;;
58768;SDS011;44536;47.474;19.056;2023-01-29T00:06:55;29.98;;;12.93;;
58768;SDS011;44536;47.474;19.056;2023-01-29T00:09:57;28.95;;;12.85;;
58768;SDS011;44536;47.474;19.056;2023-01-29T00:13:00;27.40;;;12.37;;
58768;SDS011;44536;47.474;19.056;2023-01-29T00:16:02;27.67;;;13.38;;
58768;SDS011;44536;47.474;19.056;2023-01-29T00:19:05;26.80;;;12.97;;
58768;SDS011;44536;47.474;19.056;2023-01-29T00:22:08;29.15;;;12.15;;
58768;SDS011;44536;47.474;19.056;2023-01-29T00:25:10;28.08;;;14.18;;
58768;SDS011;44536;47.474;19.056;2023-01-29T00:28:13;23.23;;;12.90;;
58768;SDS011;44536;47.474;19.056;2023-01-29T00:31:18;33.00;;;15.57;;
58768;SDS011;44536;47.474;19.056;2023-01-29T00:34:23;26.75;;;11.77;;
58768;SDS011;44536;47.474;19.056;2023-01-29T00:37:25;28.17;;;13.52;;
58768;SDS011;44536;47.474;19.056;2023-01-29T00:40:27;27.35;;;12.98;;
58768;SDS011;44536;47.474;19.056;2023-01-29T00:43:50;21.83;;;14.35;;
58768;SDS011;44536;47.474;19.056;2023-01-29T00:47:11;29.95;;;13.93;;
58768;SDS011;44536;47.474;19.056;2023-01-29T00:50:31;30.33;;;14.23;;
58768;SDS011;44536;47.474;19.056;2023-01-29T00:53:34;23.40;;;11.88;;
58768;SDS011;44536;47.474;19.056;2023-01-29T00:56:37;33.75;;;14.20;;
58768;SDS011;44536;47.474;19.056;2023-01-29T00:59:39;29.00;;;13.20;;
58768;SDS011;44536;47.474;19.056;2023-01-29T01:02:41;28.05;;;14.38;;
58768;SDS011;44536;47.474;19.056;2023-01-29T01:06:04;30.83;;;15.48;;
58768;SDS011;44536;47.474;19.056;2023-01-29T01:09:07;29.02;;;13.18;;
58768;SDS011;44536;47.474;19.056;2023-01-29T01:12:30;30.02;;;13.32;;
58768;SDS011;44536;47.474;19.056;2023-01-29T01:15:33;25.17;;;14.67;;
58768;SDS011;44536;47.474;19.056;2023-01-29T01:18:38;31.37;;;15.60;;
58768;SDS011;44536;47.474;19.056;2023-01-29T01:21:41;26.87;;;11.60;;
58768;SDS011;44536;47.474;19.056;2023-01-29T01:24:46;25.88;;;13.52;;
58768;SDS011;44536;47.474;19.056;2023-01-29T01:27:52;28.08;;;13.60;;
58768;SDS011;44536;47.474;19.056;2023-01-29T01:30:55;27.23;;;14.23;;
58768;SDS011;44536;47.474;19.056;2023-01-29T01:33:58;30.48;;;14.30;;
58768;SDS011;44536;47.474;19.056;2023-01-29T01:37:00;28.05;;;13.77;;
58768;SDS011;44536;47.474;19.056;2023-01-29T01:40:07;25.77;;;13.02;;
58768;SDS011;44536;47.474;19.056;2023-01-29T01:43:19;27.23;;;14.18;;
58768;SDS011;44536;47.474;19.056;2023-01-29T01:46:22;27.40;;;14.35;;
58768;SDS011;44536;47.474;19.056;2023-01-29T01:49:32;31.27;;;14.43;;
58768;SDS011;44536;47.474;19.056;2023-01-29T01:52:35;32.50;;;17.10;;
58768;SDS011;44536;47.474;19.056;2023-01-29T01:55:48;29.42;;;15.07;;
58768;SDS011;44536;47.474;19.056;2023-01-29T01:58:54;22.95;;;15.07;;
58768;SDS011;44536;47.474;19.056;2023-01-29T02:01:59;26.80;;;13.13;;
58768;SDS011;44536;47.474;19.056;2023-01-29T02:05:20;25.25;;;12.40;;
58768;SDS011;44536;47.474;19.056;2023-01-29T02:08:47;26.75;;;13.32;;
58768;SDS011;44536;47.474;19.056;2023-01-29T02:12:13;29.23;;;14.52;;
58768;SDS011;44536;47.474;19.056;2023-01-29T02:15:17;23.45;;;11.93;;
58768;SDS011;44536;47.474;19.056;2023-01-29T02:18:20;32.20;;;15.73;;
58768;SDS011;44536;47.474;19.056;2023-01-29T02:21:28;29.00;;;14.93;;
58768;SDS011;44536;47.474;19.056;2023-01-29T02:31:38;26.83;;;12.43;;
58768;SDS011;44536;47.474;19.056;2023-01-29T02:45:24;27.70;;;13.60;;
58768;SDS011;44536;47.474;19.056;2023-01-29T02:48:38;27.80;;;16.15;;
58768;SDS011;44536;47.474;19.056;2023-01-29T02:51:49;32.37;;;14.60;;
58768;SDS011;44536;47.474;19.056;2023-01-29T02:55:12;25.00;;;11.82;;
58768;SDS011;44536;47.474;19.056;2023-01-29T02:58:35;28.23;;;12.48;;
58768;SDS011;44536;47.474;19.056;2023-01-29T03:01:50;27.05;;;13.45;;
58768;SDS011;44536;47.474;19.056;2023-01-29T03:04:59;28.98;;;13.50;;
58768;SDS011;44536;47.474;19.056;2023-01-29T03:08:05;32.90;;;12.95;;
58768;SDS011;44536;47.474;19.056;2023-01-29T03:11:12;28.90;;;13.50;;
58768;SDS011;44536;47.474;19.056;2023-01-29T03:14:29;31.08;;;13.48;;
58768;SDS011;44536;47.474;19.056;2023-01-29T03:17:58;24.48;;;11.70;;
58768;SDS011;44536;47.474;19.056;2023-01-29T03:21:07;32.72;;;14.50;;
58768;SDS011;44536;47.474;19.056;2023-01-29T03:28:10;25.12;;;12.30;;
58768;SDS011;44536;47.474;19.056;2023-01-29T03:31:35;32.08;;;13.27;;
58768;SDS011;44536;47.474;19.056;2023-01-29T03:34:57;28.90;;;12.40;;
58768;SDS011;44536;47.474;19.056;2023-01-29T03:38:06;28.27;;;12.90;;
58768;SDS011;44536;47.474;19.056;2023-01-29T03:51:54;22.70;;;12.45;;
58768;SDS011;44536;47.474;19.056;2023-01-29T03:58:28;27.55;;;12.50;;
58768;SDS011;44536;47.474;19.056;2023-01-29T04:01:44;25.75;;;12.27;;
58768;SDS011;44536;47.474;19.056;2023-01-29T04:04:55;24.87;;;12.05;;
58768;SDS011;44536;47.474;19.056;2023-01-29T04:08:02;27.37;;;12.43;;
58768;SDS011;44536;47.474;19.056;2023-01-29T04:11:09;28.15;;;13.98;;
58768;SDS011;44536;47.474;19.056;2023-01-29T04:14:15;21.35;;;11.10;;
58768;SDS011;44536;47.474;19.056;2023-01-29T04:17:20;25.00;;;10.68;;
58768;SDS011;44536;47.474;19.056;2023-01-29T04:20:25;24.25;;;12.18;;
58768;SDS011;44536;47.474;19.056;2023-01-29T04:23:28;27.73;;;12.55;;
58768;SDS011;44536;47.474;19.056;2023-01-29T04:39:24;21.77;;;10.35;;
58768;SDS011;44536;47.474;19.056;2023-01-29T04:42:36;16.58;;;8.45;;
58768;SDS011;44536;47.474;19.056;2023-01-29T04:49:28;19.20;;;9.35;;
58768;SDS011;44536;47.474;19.056;2023-01-29T04:52:43;22.20;;;9.90;;
58768;SDS011;44536;47.474;19.056;2023-01-29T04:55:50;18.23;;;10.20;;
58768;SDS011;44536;47.474;19.056;2023-01-29T04:58:58;22.90;;;9.63;;
58768;SDS011;44536;47.474;19.056;2023-01-29T05:02:09;17.75;;;8.18;;
58768;SDS011;44536;47.474;19.056;2023-01-29T05:05:13;19.27;;;8.55;;
58768;SDS011;44536;47.474;19.056;2023-01-29T05:08:20;18.60;;;10.05;;
58768;SDS011;44536;47.474;19.056;2023-01-29T05:11:24;17.90;;;9.57;;
58768;SDS011;44536;47.474;19.056;2023-01-29T05:14:27;19.30;;;8.18;;
58768;SDS011;44536;47.474;19.056;2023-01-29T05:17:34;25.08;;;9.35;;
58768;SDS011;44536;47.474;19.056;2023-01-29T05:20:38;16.63;;;7.47;;
58768;SDS011;44536;47.474;19.056;2023-01-29T05:23:42;16.05;;;8.15;;
58768;SDS011;44536;47.474;19.056;2023-01-29T05:26:54;18.67;;;7.78;;
58768;SDS011;44536;47.474;19.056;2023-01-29T05:30:15;17.00;;;8.25;;
58768;SDS011;44536;47.474;19.056;2023-01-29T05:33:19;16.48;;;8.27;;
58768;SDS011;44536;47.474;19.056;2023-01-29T05:36:30;21.58;;;9.05;;
58768;SDS011;44536;47.474;19.056;2023-01-29T05:39:32;17.50;;;8.15;;
58768;SDS011;44536;47.474;19.056;2023-01-29T05:42:34;18.17;;;7.75;;
58768;SDS011;44536;47.474;19.056;2023-01-29T05:45:37;18.53;;;9.50;;
58768;SDS011;44536;47.474;19.056;2023-01-29T05:48:39;20.95;;;10.02;;
58768;SDS011;44536;47.474;19.056;2023-01-29T05:51:42;18.58;;;8.40;;
58768;SDS011;44536;47.474;19.056;2023-01-29T05:54:44;18.58;;;8.77;;
58768;SDS011;44536;47.474;19.056;2023-01-29T05:57:47;21.02;;;9.52;;
58768;SDS011;44536;47.474;19.056;2023-01-29T06:00:49;17.15;;;9.27;;
58768;SDS011;44536;47.474;19.056;2023-01-29T06:03:51;22.15;;;10.13;;
58768;SDS011;44536;47.474;19.056;2023-01-29T06:06:53;18.17;;;7.80;;
58768;SDS011;44536;47.474;19.056;2023-01-29T06:09:56;16.05;;;7.60;;
58768;SDS011;44536;47.474;19.056;2023-01-29T06:12:58;14.95;;;7.43;;
58768;SDS011;44536;47.474;19.056;2023-01-29T06:16:03;18.12;;;9.10;;
58768;SDS011;44536;47.474;19.056;2023-01-29T06:19:07;22.20;;;8.43;;
58768;SDS011;44536;47.474;19.056;2023-01-29T06:22:09;19.77;;;8.52;;
58768;SDS011;44536;47.474;19.056;2023-01-29T06:25:11;14.77;;;7.57;;
58768;SDS011;44536;47.474;19.056;2023-01-29T06:28:14;20.40;;;10.83;;
58768;SDS011;44536;47.474;19.056;2023-01-29T06:31:16;19.45;;;9.38;;
58768;SDS011;44536;47.474;19.056;2023-01-29T06:34:39;21.20;;;9.07;;
58768;SDS011;44536;47.474;19.056;2023-01-29T06:37:41;18.17;;;8.05;;
58768;SDS011;44536;47.474;19.056;2023-01-29T06:40:44;16.98;;;9.10;;
58768;SDS011;44536;47.474;19.056;2023-01-29T06:43:46;18.65;;;9.70;;
58768;SDS011;44536;47.474;19.056;2023-01-29T06:46:49;18.90;;;7.87;;
58768;SDS011;44536;47.474;19.056;2023-01-29T06:49:51;18.37;;;9.52;;
58768;SDS011;44536;47.474;19.056;2023-01-29T06:52:54;18.67;;;8.75;;
58768;SDS011;44536;47.474;19.056;2023-01-29T06:55:56;18.67;;;7.57;;
58768;SDS011;44536;47.474;19.056;2023-01-29T06:58:58;16.83;;;8.52;;
58768;SDS011;44536;47.474;19.056;2023-01-29T07:02:02;17.45;;;9.90;;
58768;SDS011;44536;47.474;19.056;2023-01-29T07:05:04;16.48;;;8.85;;
58768;SDS011;44536;47.474;19.056;2023-01-29T07:08:07;22.65;;;10.77;;
58768;SDS011;44536;47.474;19.056;2023-01-29T07:11:10;20.17;;;9.55;;
58768;SDS011;44536;47.474;19.056;2023-01-29T07:14:13;19.75;;;8.05;;
58768;SDS011;44536;47.474;19.056;2023-01-29T07:17:16;16.45;;;7.45;;
58768;SDS011;44536;47.474;19.056;2023-01-29T07:20:18;16.87;;;8.38;;
58768;SDS011;44536;47.474;19.056;2023-01-29T07:23:20;17.00;;;7.72;;
58768;SDS011;44536;47.474;19.056;2023-01-29T07:26:23;15.73;;;7.60;;
58768;SDS011;44536;47.474;19.056;2023-01-29T07:29:25;19.00;;;9.23;;
58768;SDS011;44536;47.474;19.056;2023-01-29T07:32:27;17.10;;;7.03;;
58768;SDS011;44536;47.474;19.056;2023-01-29T07:35:30;14.00;;;7.32;;
58768;SDS011;44536;47.474;19.056;2023-01-29T07:38:33;17.58;;;7.93;;
58768;SDS011;44536;47.474;19.056;2023-01-29T07:41:35;19.07;;;8.60;;
58768;SDS011;44536;47.474;19.056;2023-01-29T07:44:42;13.23;;;7.15;;
58768;SDS011;44536;47.474;19.056;2023-01-29T07:47:45;16.67;;;7.60;;
58768;SDS011;44536;47.474;19.056;2023-01-29T07:50:53;18.08;;;7.03;;
58768;SDS011;44536;47.474;19.056;2023-01-29T07:53:57;18.62;;;8.45;;
58768;SDS011;44536;47.474;19.056;2023-01-29T07:56:59;16.62;;;7.35;;
58768;SDS011;44536;47.474;19.056;2023-01-29T08:00:02;13.77;;;6.62;;
58768;SDS011;44536;47.474;19.056;2023-01-29T08:03:14;15.88;;;7.93;;
58768;SDS011;44536;47.474;19.056;2023-01-29T08:06:18;19.02;;;8.32;;
58768;SDS011;44536;47.474;19.056;2023-01-29T08:09:20;14.93;;;7.57;;
58768;SDS011;44536;47.474;19.056;2023-01-29T08:12:23;17.12;;;9.20;;
58768;SDS011;44536;47.474;19.056;2023-01-29T08:15:25;18.25;;;7.55;;
58768;SDS011;44536;47.474;19.056;2023-01-29T08:18:28;16.42;;;8.68;;
58768;SDS011;44536;47.474;19.056;2023-01-29T08:21:32;20.23;;;8.85;;
58768;SDS011;44536;47.474;19.056;2023-01-29T08:24:35;13.15;;;6.32;;
58768;SDS011;44536;47.474;19.056;2023-01-29T08:27:57;13.73;;;6.60;;
58768;SDS011;44536;47.474;19.056;2023-01-29T08:31:00;19.60;;;8.55;;
58768;SDS011;44536;47.474;19.056;2023-01-29T08:34:02;16.55;;;7.50;;
58768;SDS011;44536;47.474;19.056;2023-01-29T08:37:05;16.03;;;7.07;;
58768;SDS011;44536;47.474;19.056;2023-01-29T08:40:07;13.30;;;7.47;;
58768;SDS011;44536;47.474;19.056;2023-01-29T08:43:12;15.50;;;6.97;;
58768;SDS011;44536;47.474;19.056;2023-01-29T08:46:14;13.57;;;6.23;;
58768;SDS011;44536;47.474;19.056;2023-01-29T08:49:17;18.62;;;7.28;;
58768;SDS011;44536;47.474;19.056;2023-01-29T08:52:19;14.57;;;6.65;;
58768;SDS011;44536;47.474;19.056;2023-01-29T08:55:21;21.80;;;7.62;;
58768;SDS011;44536;47.474;19.056;2023-01-29T08:58:24;16.67;;;7.18;;
58768;SDS011;44536;47.474;19.056;2023-01-29T09:01:26;14.82;;;7.03;;
58768;SDS011;44536;47.474;19.056;2023-01-29T09:04:28;14.95;;;7.40;;
58768;SDS011;44536;47.474;19.056;2023-01-29T09:07:31;16.15;;;7.07;;
58768;SDS011;44536;47.474;19.056;2023-01-29T09:10:34;17.85;;;6.95;;
58768;SDS011;44536;47.474;19.056;2023-01-29T09:13:36;14.70;;;5.60;;
58768;SDS011;44536;47.474;19.056;2023-01-29T09:16:39;12.88;;;5.70;;
58768;SDS011;44536;47.474;19.056;2023-01-29T09:19:42;14.50;;;6.15;;
58768;SDS011;44536;47.474;19.056;2023-01-29T09:22:44;11.63;;;5.60;;
58768;SDS011;44536;47.474;19.056;2023-01-29T09:28:49;16.37;;;6.53;;
58768;SDS011;44536;47.474;19.056;2023-01-29T09:31:52;12.55;;;6.87;;
58768;SDS011;44536;47.474;19.056;2023-01-29T09:34:55;11.70;;;6.05;;
58768;SDS011;44536;47.474;19.056;2023-01-29T09:37:58;12.88;;;6.37;;
58768;SDS011;44536;47.474;19.056;2023-01-29T09:44:45;13.48;;;5.50;;
58768;SDS011;44536;47.474;19.056;2023-01-29T09:47:56;14.18;;;5.85;;
58768;SDS011;44536;47.474;19.056;2023-01-29T09:51:02;11.98;;;5.10;;
58768;SDS011;44536;47.474;19.056;2023-01-29T09:54:13;12.43;;;6.03;;
58768;SDS011;44536;47.474;19.056;2023-01-29T09:57:46;13.90;;;6.37;;
58768;SDS011;44536;47.474;19.056;2023-01-29T10:00:59;12.48;;;5.25;;
58768;SDS011;44536;47.474;19.056;2023-01-29T10:10:36;13.35;;;5.80;;
58768;SDS011;44536;47.474;19.056;2023-01-29T10:23:46;11.50;;;4.95;;
58768;SDS011;44536;47.474;19.056;2023-01-29T10:26:54;10.82;;;5.22;;
58768;SDS011;44536;47.474;19.056;2023-01-29T10:29:57;12.02;;;5.55;;
58768;SDS011;44536;47.474;19.056;2023-01-29T10:33:02;11.43;;;5.10;;
58768;SDS011;44536;47.474;19.056;2023-01-29T10:36:08;11.85;;;5.50;;
58768;SDS011;44536;47.474;19.056;2023-01-29T10:39:19;12.43;;;6.15;;
58768;SDS011;44536;47.474;19.056;2023-01-29T10:42:30;13.85;;;4.32;;
58768;SDS011;44536;47.474;19.056;2023-01-29T10:45:44;10.60;;;4.72;;
58768;SDS011;44536;47.474;19.056;2023-01-29T10:49:14;13.75;;;4.93;;
58768;SDS011;44536;47.474;19.056;2023-01-29T10:56:04;13.23;;;4.65;;
58768;SDS011;44536;47.474;19.056;2023-01-29T11:02:34;10.38;;;4.82;;
58768;SDS011;44536;47.474;19.056;2023-01-29T11:05:37;12.60;;;6.07;;
58768;SDS011;44536;47.474;19.056;2023-01-29T11:08:51;12.75;;;4.97;;
58768;SDS011;44536;47.474;19.056;2023-01-29T11:12:04;12.45;;;5.03;;
58768;SDS011;44536;47.474;19.056;2023-01-29T11:15:28;10.95;;;5.25;;
58768;SDS011;44536;47.474;19.056;2023-01-29T11:18:47;13.15;;;5.12;;
58768;SDS011;44536;47.474;19.056;2023-01-29T11:21:57;10.13;;;4.82;;
58768;SDS011;44536;47.474;19.056;2023-01-29T11:25:09;10.30;;;4.82;;
58768;SDS011;44536;47.474;19.056;2023-01-29T11:28:35;10.25;;;4.97;;
58768;SDS011;44536;47.474;19.056;2023-01-29T11:31:41;11.75;;;5.70;;
58768;SDS011;44536;47.474;19.056;2023-01-29T11:41:17;10.20;;;4.87;;
58768;SDS011;44536;47.474;19.056;2023-01-29T11:44:33;11.15;;;6.18;;
58768;SDS011;44536;47.474;19.056;2023-01-29T11:47:41;10.65;;;4.95;;
58768;SDS011;44536;47.474;19.056;2023-01-29T11:51:06;14.00;;;6.28;;
58768;SDS011;44536;47.474;19.056;2023-01-29T11:54:14;10.82;;;5.53;;
58768;SDS011;44536;47.474;19.056;2023-01-29T11:57:22;11.85;;;4.90;;
58768;SDS011;44536;47.474;19.056;2023-01-29T12:00:33;9.50;;;4.45;;
58768;SDS011;44536;47.474;19.056;2023-01-29T12:03:40;13.68;;;5.53;;
58768;SDS011;44536;47.474;19.056;2023-01-29T12:06:45;11.05;;;4.82;;
58768;SDS011;44536;47.474;19.056;2023-01-29T12:09:54;11.48;;;6.07;;
58768;SDS011;44536;47.474;19.056;2023-01-29T12:16:22;10.20;;;5.57;;
58768;SDS011;44536;47.474;19.056;2023-01-29T12:19:33;13.45;;;4.87;;
58768;SDS011;44536;47.474;19.056;2023-01-29T12:22:49;14.98;;;5.68;;
58768;SDS011;44536;47.474;19.056;2023-01-29T12:26:05;12.07;;;4.93;;
58768;SDS011;44536;47.474;19.056;2023-01-29T12:29:20;10.52;;;4.62;;
58768;SDS011;44536;47.474;19.056;2023-01-29T12:36:06;12.35;;;6.10;;
58768;SDS011;44536;47.474;19.056;2023-01-29T12:39:12;11.95;;;5.40;;
58768;SDS011;44536;47.474;19.056;2023-01-29T12:42:19;11.80;;;4.60;;
58768;SDS011;44536;47.474;19.056;2023-01-29T12:45:23;13.02;;;5.30;;
58768;SDS011;44536;47.474;19.056;2023-01-29T12:48:31;10.30;;;4.40;;
58768;SDS011;44536;47.474;19.056;2023-01-29T12:51:39;8.30;;;4.20;;
58768;SDS011;44536;47.474;19.056;2023-01-29T12:55:01;10.25;;;5.32;;
58768;SDS011;44536;47.474;19.056;2023-01-29T12:58:11;9.25;;;4.00;;
58768;SDS011;44536;47.474;19.056;2023-01-29T13:04:31;12.27;;;5.05;;
58768;SDS011;44536;47.474;19.056;2023-01-29T13:07:41;9.93;;;5.00;;
58768;SDS011;44536;47.474;19.056;2023-01-29T13:10:51;12.27;;;4.47;;
58768;SDS011;44536;47.474;19.056;2023-01-29T13:13:58;9.57;;;4.72;;
58768;SDS011;44536;47.474;19.056;2023-01-29T13:17:20;8.82;;;5.20;;
58768;SDS011;44536;47.474;19.056;2023-01-29T13:26:38;8.90;;;4.07;;
58768;SDS011;44536;47.474;19.056;2023-01-29T13:29:42;8.43;;;4.43;;
58768;SDS011;44536;47.474;19.056;2023-01-29T13:32:49;11.07;;;4.85;;
58768;SDS011;44536;47.474;19.056;2023-01-29T13:35:57;9.43;;;4.75;;
58768;SDS011;44536;47.474;19.056;2023-01-29T13:39:02;8.23;;;4.22;;
58768;SDS011;44536;47.474;19.056;2023-01-29T13:48:52;10.50;;;5.07;;
58768;SDS011;44536;47.474;19.056;2023-01-29T13:52:11;9.35;;;4.95;;
58768;SDS011;44536;47.474;19.056;2023-01-29T13:55:26;11.95;;;5.15;;
58768;SDS011;44536;47.474;19.056;2023-01-29T14:04:49;9.48;;;4.40;;
58768;SDS011;44536;47.474;19.056;2023-01-29T14:07:52;9.98;;;4.70;;
58768;SDS011;44536;47.474;19.056;2023-01-29T14:11:26;9.32;;;4.82;;
58768;SDS011;44536;47.474;19.056;2023-01-29T14:17:57;11.02;;;5.55;;
58768;SDS011;44536;47.474;19.056;2023-01-29T14:21:18;9.63;;;5.78;;
58768;SDS011;44536;47.474;19.056;2023-01-29T14:24:26;10.63;;;5.10;;
58768;SDS011;44536;47.474;19.056;2023-01-29T14:27:31;12.35;;;5.05;;
58768;SDS011;44536;47.474;19.056;2023-01-29T14:30:36;10.60;;;5.30;;
58768;SDS011;44536;47.474;19.056;2023-01-29T14:33:41;11.20;;;5.65;;
58768;SDS011;44536;47.474;19.056;2023-01-29T14:36:46;9.13;;;5.87;;
58768;SDS011;44536;47.474;19.056;2023-01-29T14:39:56;11.35;;;5.05;;
58768;SDS011;44536;47.474;19.056;2023-01-29T14:50:36;13.23;;;6.15;;
58768;SDS011;44536;47.474;19.056;2023-01-29T14:53:30;9.85;;;5.78;;
58768;SDS011;44536;47.474;19.056;2023-01-29T14:56:59;11.50;;;5.12;;
58768;SDS011;44536;47.474;19.056;2023-01-29T15:00:13;10.52;;;6.35;;
58768;SDS011;44536;47.474;19.056;2023-01-29T15:03:26;11.12;;;5.68;;
58768;SDS011;44536;47.474;19.056;2023-01-29T15:13:46;15.35;;;5.45;;
58768;SDS011;44536;47.474;19.056;2023-01-29T15:20:33;14.13;;;5.22;;
58768;SDS011;44536;47.474;19.056;2023-01-29T15:23:37;12.18;;;6.05;;
58768;SDS011;44536;47.474;19.056;2023-01-29T15:26:40;12.93;;;5.80;;
58768;SDS011;44536;47.474;19.056;2023-01-29T15:29:47;12.27;;;5.03;;
58768;SDS011;44536;47.474;19.056;2023-01-29T15:33:00;16.42;;;5.82;;
58768;SDS011;44536;47.474;19.056;2023-01-29T15:36:04;13.90;;;6.93;;
58768;SDS011;44536;47.474;19.056;2023-01-29T15:42:14;15.73;;;5.87;;
58768;SDS011;44536;47.474;19.056;2023-01-29T15:45:23;16.35;;;7.93;;
58768;SDS011;44536;47.474;19.056;2023-01-29T15:48:31;16.62;;;7.32;;
58768;SDS011;44536;47.474;19.056;2023-01-29T15:51:37;13.77;;;7.35;;
58768;SDS011;44536;47.474;19.056;2023-01-29T15:54:40;19.45;;;7.57;;
58768;SDS011;44536;47.474;19.056;2023-01-29T15:57:42;18.12;;;7.00;;
58768;SDS011;44536;47.474;19.056;2023-01-29T16:03:56;13.02;;;6.22;;
58768;SDS011;44536;47.474;19.056;2023-01-29T16:07:03;16.70;;;7.28;;
58768;SDS011;44536;47.474;19.056;2023-01-29T16:10:10;13.60;;;7.28;;
58768;SDS011;44536;47.474;19.056;2023-01-29T16:13:19;11.85;;;6.47;;
58768;SDS011;44536;47.474;19.056;2023-01-29T16:16:27;15.07;;;7.62;;
58768;SDS011;44536;47.474;19.056;2023-01-29T16:19:29;13.67;;;7.63;;
58768;SDS011;44536;47.474;19.056;2023-01-29T16:22:35;18.77;;;7.30;;
58768;SDS011;44536;47.474;19.056;2023-01-29T16:25:38;16.05;;;7.47;;
58768;SDS011;44536;47.474;19.056;2023-01-29T16:28:41;16.07;;;7.37;;
58768;SDS011;44536;47.474;19.056;2023-01-29T16:31:45;16.95;;;6.55;;
58768;SDS011;44536;47.474;19.056;2023-01-29T16:34:49;15.77;;;7.68;;
58768;SDS011;44536;47.474;19.056;2023-01-29T16:37:59;16.12;;;7.87;;
58768;SDS011;44536;47.474;19.056;2023-01-29T16:41:07;13.57;;;6.37;;
58768;SDS011;44536;47.474;19.056;2023-01-29T16:47:37;14.85;;;7.75;;
58768;SDS011;44536;47.474;19.056;2023-01-29T16:50:44;13.48;;;8.30;;
58768;SDS011;44536;47.474;19.056;2023-01-29T16:53:57;14.45;;;6.87;;
58768;SDS011;44536;47.474;19.056;2023-01-29T16:57:13;12.30;;;7.22;;
58768;SDS011;44536;47.474;19.056;2023-01-29T17:00:25;15.90;;;7.50;;
58768;SDS011;44536;47.474;19.056;2023-01-29T17:03:30;17.42;;;8.07;;
58768;SDS011;44536;47.474;19.056;2023-01-29T17:06:34;15.10;;;7.53;;
58768;SDS011;44536;47.474;19.056;2023-01-29T17:09:37;17.98;;;8.30;;
58768;SDS011;44536;47.474;19.056;2023-01-29T17:12:40;23.13;;;8.97;;
58768;SDS011;44536;47.474;19.056;2023-01-29T17:15:45;15.20;;;9.43;;
58768;SDS011;44536;47.474;19.056;2023-01-29T17:18:48;14.27;;;7.70;;
58768;SDS011;44536;47.474;19.056;2023-01-29T17:21:50;16.33;;;8.82;;
58768;SDS011;44536;47.474;19.056;2023-01-29T17:24:53;17.12;;;8.98;;
58768;SDS011;44536;47.474;19.056;2023-01-29T17:27:55;19.17;;;9.38;;
58768;SDS011;44536;47.474;19.056;2023-01-29T17:31:02;20.15;;;8.30;;
58768;SDS011;44536;47.474;19.056;2023-01-29T17:34:09;14.98;;;7.15;;
58768;SDS011;44536;47.474;19.056;2023-01-29T17:37:15;17.08;;;9.65;;
58768;SDS011;44536;47.474;19.056;2023-01-29T17:40:37;15.88;;;8.38;;
58768;SDS011;44536;47.474;19.056;2023-01-29T17:43:44;16.73;;;8.73;;
58768;SDS011;44536;47.474;19.056;2023-01-29T17:46:46;17.15;;;9.65;;
58768;SDS011;44536;47.474;19.056;2023-01-29T17:49:49;17.33;;;7.45;;
58768;SDS011;44536;47.474;19.056;2023-01-29T17:52:51;18.92;;;8.35;;
58768;SDS011;44536;47.474;19.056;2023-01-29T17:55:55;14.30;;;8.25;;
58768;SDS011;44536;47.474;19.056;2023-01-29T17:58:57;17.98;;;8.30;;
58768;SDS011;44536;47.474;19.056;2023-01-29T18:01:59;14.95;;;7.45;;
58768;SDS011;44536;47.474;19.056;2023-01-29T18:05:02;19.92;;;9.65;;
58768;SDS011;44536;47.474;19.056;2023-01-29T18:08:04;16.62;;;8.85;;
58768;SDS011;44536;47.474;19.056;2023-01-29T18:11:07;19.17;;;8.75;;
58768;SDS011;44536;47.474;19.056;2023-01-29T18:14:12;14.00;;;7.80;;
58768;SDS011;44536;47.474;19.056;2023-01-29T18:17:15;16.83;;;8.23;;
58768;SDS011;44536;47.474;19.056;2023-01-29T18:20:23;18.35;;;8.82;;
58768;SDS011;44536;47.474;19.056;2023-01-29T18:23:28;19.08;;;8.70;;
58768;SDS011;44536;47.474;19.056;2023-01-29T18:26:33;16.98;;;9.68;;
58768;SDS011;44536;47.474;19.056;2023-01-29T18:29:37;16.73;;;9.85;;
58768;SDS011;44536;47.474;19.056;2023-01-29T18:32:39;17.05;;;9.48;;
58768;SDS011;44536;47.474;19.056;2023-01-29T18:35:42;14.18;;;6.97;;
58768;SDS011;44536;47.474;19.056;2023-01-29T18:38:45;16.27;;;9.57;;
58768;SDS011;44536;47.474;19.056;2023-01-29T18:41:48;18.12;;;9.20;;
58768;SDS011;44536;47.474;19.056;2023-01-29T18:44:50;21.83;;;11.07;;
58768;SDS011;44536;47.474;19.056;2023-01-29T18:47:53;17.63;;;10.03;;
58768;SDS011;44536;47.474;19.056;2023-01-29T18:50:55;17.30;;;8.52;;
58768;SDS011;44536;47.474;19.056;2023-01-29T18:53:58;16.42;;;8.23;;
58768;SDS011;44536;47.474;19.056;2023-01-29T18:57:00;15.57;;;7.97;;
58768;SDS011;44536;47.474;19.056;2023-01-29T19:00:15;17.27;;;9.60;;
58768;SDS011;44536;47.474;19.056;2023-01-29T19:03:17;18.53;;;9.97;;
58768;SDS011;44536;47.474;19.056;2023-01-29T19:06:20;18.75;;;9.60;;
58768;SDS011;44536;47.474;19.056;2023-01-29T19:09:22;19.52;;;8.88;;
58768;SDS011;44536;47.474;19.056;2023-01-29T19:12:25;22.43;;;9.10;;
58768;SDS011;44536;47.474;19.056;2023-01-29T19:15:27;17.60;;;9.65;;
58768;SDS011;44536;47.474;19.056;2023-01-29T19:18:30;13.93;;;7.75;;
58768;SDS011;44536;47.474;19.056;2023-01-29T19:21:32;15.32;;;7.95;;
58768;SDS011;44536;47.474;19.056;2023-01-29T19:24:37;18.58;;;10.00;;
58768;SDS011;44536;47.474;19.056;2023-01-29T19:27:40;16.95;;;9.07;;
58768;SDS011;44536;47.474;19.056;2023-01-29T19:30:42;15.93;;;7.95;;
58768;SDS011;44536;47.474;19.056;2023-01-29T19:33:45;14.65;;;7.57;;
58768;SDS011;44536;47.474;19.056;2023-01-29T19:36:47;15.67;;;8.00;;
58768;SDS011;44536;47.474;19.056;2023-01-29T19:39:50;15.90;;;8.70;;
58768;SDS011;44536;47.474;19.056;2023-01-29T19:42:52;12.47;;;6.80;;
58768;SDS011;44536;47.474;19.056;2023-01-29T19:45:57;15.70;;;8.57;;
58768;SDS011;44536;47.474;19.056;2023-01-29T19:49:00;17.17;;;6.95;;
58768;SDS011;44536;47.474;19.056;2023-01-29T19:52:04;14.35;;;8.68;;
58768;SDS011;44536;47.474;19.056;2023-01-29T19:55:09;17.37;;;9.00;;
58768;SDS011;44536;47.474;19.056;2023-01-29T19:58:11;17.33;;;8.07;;
58768;SDS011;44536;47.474;19.056;2023-01-29T20:01:17;13.50;;;8.17;;
58768;SDS011;44536;47.474;19.056;2023-01-29T20:04:21;17.50;;;9.98;;
58768;SDS011;44536;47.474;19.056;2023-01-29T20:07:23;18.10;;;8.40;;
58768;SDS011;44536;47.474;19.056;2023-01-29T20:10:26;15.57;;;8.95;;
58768;SDS011;44536;47.474;19.056;2023-01-29T20:13:28;15.70;;;8.43;;
58768;SDS011;44536;47.474;19.056;2023-01-29T20:16:31;14.85;;;8.52;;
58768;SDS011;44536;47.474;19.056;2023-01-29T20:19:33;14.00;;;7.93;;
58768;SDS011;44536;47.474;19.056;2023-01-29T20:22:36;14.77;;;7.77;;
58768;SDS011;44536;47.474;19.056;2023-01-29T20:25:38;17.87;;;8.77;;
58768;SDS011;44536;47.474;19.056;2023-01-29T20:28:41;21.05;;;9.27;;
58768;SDS011;44536;47.474;19.056;2023-01-29T20:31:43;16.73;;;8.23;;
58768;SDS011;44536;47.474;19.056;2023-01-29T20:34:46;14.83;;;7.87;;
58768;SDS011;44536;47.474;19.056;2023-01-29T20:37:53;14.13;;;7.00;;